createdAt,value
2022-08-26T00:01:28.983Z,100173.31
2022-08-26T00:03:32.856Z,100177.03
2022-08-26T00:05:35.714Z,100178.03
2022-08-26T00:07:38.528Z,100178.03
2022-08-26T00:09:41.462Z,100174.97
2022-08-26T00:11:50.053Z,100176.06
2022-08-26T00:13:53.917Z,100173.03
2022-08-26T00:15:56.995Z,100172.00
2022-08-26T00:18:01.279Z,100164.97
2022-08-26T00:20:04.360Z,100172.84
2022-08-26T00:22:07.234Z,100168.22
2022-08-26T00:24:10.345Z,100171.38
2022-08-26T00:26:13.403Z,100171.69
2022-08-26T00:28:17.075Z,100179.03
2022-08-26T00:30:28.411Z,100167.94
2022-08-26T00:32:31.485Z,100172.38
2022-08-26T00:34:36.042Z,100169.63
2022-08-26T00:36:39.806Z,100167.03
2022-08-26T00:38:44.061Z,100167.28
2022-08-26T00:40:52.994Z,100164.63
2022-08-26T00:42:57.207Z,100169.09
2022-08-26T00:45:00.065Z,100167.44
2022-08-26T00:47:06.626Z,100171.09
2022-08-26T00:49:14.505Z,100171.03
2022-08-26T00:51:23.880Z,100168.28
2022-08-26T00:53:32.165Z,100163.69
2022-08-26T00:55:40.322Z,100159.53
2022-08-26T00:57:43.970Z,100162.50
2022-08-26T00:59:52.317Z,100162.50
2022-08-26T01:01:55.317Z,100164.56
2022-08-26T01:04:00.818Z,100168.28
2022-08-26T01:06:06.634Z,100164.28
2022-08-26T01:08:16.873Z,100166.09
2022-08-26T01:10:23.475Z,100167.94
2022-08-26T01:12:30.001Z,100169.13
2022-08-26T01:14:36.703Z,100173.56
2022-08-26T01:16:39.912Z,100168.09
2022-08-26T01:18:46.753Z,100173.41
2022-08-26T01:20:58.320Z,100171.63
2022-08-26T01:23:06.983Z,100161.94
2022-08-26T01:25:12.153Z,100171.97
2022-08-26T01:27:19.575Z,100174.72
2022-08-26T01:29:22.754Z,100171.13
2022-08-26T01:31:29.627Z,100171.97
2022-08-26T01:33:42.051Z,100173.09
2022-08-26T01:35:46.083Z,100177.59
2022-08-26T01:37:50.561Z,100174.31
2022-08-26T01:39:57.898Z,100182.69
2022-08-26T01:42:03.314Z,100188.22
2022-08-26T01:44:09.713Z,100178.31
2022-08-26T01:46:14.210Z,100180.03
2022-08-26T01:48:21.924Z,100182.19
2022-08-26T01:50:30.307Z,100185.41
2022-08-26T01:52:36.774Z,100178.41
2022-08-26T01:54:39.759Z,100178.41
2022-08-26T01:56:44.426Z,100180.75
2022-08-26T01:58:51.615Z,100177.88
2022-08-26T02:00:55.128Z,100187.59
2022-08-26T02:03:12.942Z,100179.47
2022-08-26T02:05:20.247Z,100184.56
2022-08-26T02:07:24.283Z,100186.47
2022-08-26T02:09:29.671Z,100186.47
2022-08-26T02:11:34.820Z,100188.50
2022-08-26T02:13:45.877Z,100189.94
2022-08-26T02:15:49.678Z,100183.34
2022-08-26T02:17:53.162Z,100180.75
2022-08-26T02:19:57.272Z,100183.91
2022-08-26T02:22:03.961Z,100182.13
2022-08-26T02:24:12.073Z,100177.44
2022-08-26T02:26:18.045Z,100182.03
2022-08-26T02:28:22.307Z,100181.25
2022-08-26T02:30:33.430Z,100178.94
2022-08-26T02:32:37.351Z,100173.56
2022-08-26T02:34:43.084Z,100182.59
2022-08-26T02:36:46.032Z,100180.00
2022-08-26T02:38:49.261Z,100170.13
2022-08-26T02:40:54.885Z,100172.03
2022-08-26T02:42:58.183Z,100171.19
2022-08-26T02:45:01.187Z,100182.00
2022-08-26T02:47:07.414Z,100182.13
2022-08-26T02:49:10.703Z,100180.34
2022-08-26T02:51:13.498Z,100191.16
2022-08-26T02:53:18.013Z,100190.44
2022-08-26T02:55:27.485Z,100188.59
2022-08-26T02:57:32.018Z,100194.69
2022-08-26T02:59:35.925Z,100194.03
2022-08-26T03:01:39.070Z,100192.31
2022-08-26T03:03:43.292Z,100194.03
2022-08-26T03:05:46.140Z,100198.53
2022-08-26T03:07:49.823Z,100201.94
2022-08-26T03:09:53.578Z,100189.44
2022-08-26T03:11:56.641Z,100194.88
2022-08-26T03:14:00.540Z,100188.44
2022-08-26T03:16:04.954Z,100190.97
2022-08-26T03:18:08.576Z,100190.03
2022-08-26T03:20:13.615Z,100191.94
2022-08-26T03:22:19.345Z,100195.59
2022-08-26T03:24:23.372Z,100185.78
2022-08-26T03:26:28.911Z,100188.44
2022-08-26T03:28:32.189Z,100181.00
2022-08-26T03:30:45.343Z,100188.88
2022-08-26T03:32:48.642Z,100186.00
2022-08-26T03:34:51.509Z,100183.28
2022-08-26T03:36:55.745Z,100193.91
2022-08-26T03:38:59.155Z,100190.44
2022-08-26T03:41:02.049Z,100185.78
2022-08-26T03:43:09.741Z,100189.72
2022-08-26T03:45:15.334Z,100190.16
2022-08-26T03:47:18.279Z,100194.44
2022-08-26T03:49:21.192Z,100188.22
2022-08-26T03:51:24.651Z,100187.28
2022-08-26T03:53:28.933Z,100183.91
2022-08-26T03:55:33.020Z,100185.31
2022-08-26T03:57:36.452Z,100182.75
2022-08-26T03:59:41.281Z,100182.59
2022-08-26T04:01:44.323Z,100185.19
2022-08-26T04:04:00.171Z,100185.00
2022-08-26T04:06:04.056Z,100190.94
2022-08-26T04:08:07.264Z,100177.81
2022-08-26T04:10:14.020Z,100186.69
2022-08-26T04:12:18.307Z,100186.75
2022-08-26T04:14:25.007Z,100191.38
2022-08-26T04:16:29.651Z,100196.81
2022-08-26T04:18:36.867Z,100199.63
2022-08-26T04:20:40.415Z,100197.94
2022-08-26T04:22:43.367Z,100195.47
2022-08-26T04:24:46.355Z,100194.38
2022-08-26T04:26:50.862Z,100191.66
2022-08-26T04:28:55.798Z,100193.41
2022-08-26T04:30:59.082Z,100198.78
2022-08-26T04:33:04.528Z,100196.06
2022-08-26T04:35:16.170Z,100196.25
2022-08-26T04:37:19.730Z,100190.03
2022-08-26T04:39:25.304Z,100196.41
2022-08-26T04:41:31.530Z,100193.53
2022-08-26T04:43:36.931Z,100200.50
2022-08-26T04:45:41.685Z,100188.16
2022-08-26T04:47:44.580Z,100193.47
2022-08-26T04:49:47.395Z,100198.78
2022-08-26T04:51:50.267Z,100197.81
2022-08-26T04:53:53.483Z,100195.19
2022-08-26T04:55:56.860Z,100203.16
2022-08-26T04:58:00.856Z,100201.44
2022-08-26T05:00:06.310Z,100204.94
2022-08-26T05:02:09.141Z,100208.53
2022-08-26T05:04:12.353Z,100205.81
2022-08-26T05:06:20.530Z,100209.31
2022-08-26T05:08:25.241Z,100211.88
2022-08-26T05:10:27.393Z,100214.63
2022-08-26T05:12:31.463Z,100212.06
2022-08-26T05:14:34.634Z,100215.56
2022-08-26T05:16:40.545Z,100212.91
2022-08-26T05:18:44.910Z,100210.38
2022-08-26T05:20:54.695Z,100212.06
2022-08-26T05:22:57.831Z,100200.78
2022-08-26T05:25:00.794Z,100213.84
2022-08-26T05:27:03.917Z,100211.09
2022-08-26T05:29:14.862Z,100210.03
2022-08-26T05:31:22.432Z,100205.56
2022-08-26T05:33:26.872Z,100214.31
2022-08-26T05:35:31.960Z,100218.22
2022-08-26T05:37:34.771Z,100218.84
2022-08-26T05:39:38.383Z,100221.44
2022-08-26T05:41:44.761Z,100221.34
2022-08-26T05:43:48.231Z,100226.66
2022-08-26T05:45:52.018Z,100229.53
2022-08-26T05:47:55.181Z,100232.25
2022-08-26T05:50:00.510Z,100237.56
2022-08-26T05:52:03.593Z,100235.09
2022-08-26T05:54:07.117Z,100241.41
2022-08-26T05:56:12.619Z,100242.53
2022-08-26T05:58:17.434Z,100235.16
2022-08-26T06:00:21.113Z,100239.53
2022-08-26T06:02:24.453Z,100237.00
2022-08-26T06:04:28.614Z,100241.25
2022-08-26T06:06:35.956Z,100228.41
2022-08-26T06:08:39.018Z,100239.59
2022-08-26T06:10:47.636Z,100236.91
2022-08-26T06:12:51.306Z,100248.44
2022-08-26T06:14:54.945Z,100247.50
2022-08-26T06:16:58.106Z,100254.66
2022-08-26T06:19:02.765Z,100252.22
2022-08-26T06:21:15.094Z,100252.16
2022-08-26T06:23:37.353Z,100246.69
2022-08-26T06:25:43.443Z,100255.28
2022-08-26T06:27:46.291Z,100250.53
2022-08-26T06:29:49.118Z,100252.97
2022-08-26T06:31:52.540Z,100253.56
2022-08-26T06:33:56.139Z,100254.13
2022-08-26T06:36:01.000Z,100250.34
2022-08-26T06:38:03.870Z,100256.75
2022-08-26T06:40:09.974Z,100257.81
2022-08-26T06:42:14.478Z,100258.81
2022-08-26T06:44:18.981Z,100262.19
2022-08-26T06:46:23.022Z,100262.72
2022-08-26T06:48:28.974Z,100269.00
2022-08-26T06:50:31.877Z,100255.66
2022-08-26T06:52:34.706Z,100266.09
2022-08-26T06:54:43.002Z,100273.66
2022-08-26T06:56:47.916Z,100262.88
2022-08-26T06:58:51.835Z,100265.19
2022-08-26T07:00:54.645Z,100264.03
2022-08-26T07:02:57.563Z,100260.16
2022-08-26T07:05:00.511Z,100263.47
2022-08-26T07:07:03.347Z,100272.22
2022-08-26T07:09:09.707Z,100270.94
2022-08-26T07:11:13.406Z,100271.84
2022-08-26T07:13:18.169Z,100268.88
2022-08-26T07:15:35.760Z,100268.66
2022-08-26T07:17:38.941Z,100272.94
2022-08-26T07:19:43.287Z,100276.69
2022-08-26T07:21:46.118Z,100264.56
2022-08-26T07:23:50.586Z,100273.53
2022-08-26T07:25:53.428Z,100276.69
2022-08-26T07:27:56.308Z,100271.22
2022-08-26T07:30:01.019Z,100275.25
2022-08-26T07:32:06.387Z,100273.84
2022-08-26T07:34:10.483Z,100272.63
2022-08-26T07:36:15.135Z,100265.03
2022-08-26T07:38:17.956Z,100273.03
2022-08-26T07:40:21.725Z,100272.34
2022-08-26T07:42:25.334Z,100271.25
2022-08-26T07:44:28.617Z,100274.00
2022-08-26T07:46:32.902Z,100273.47
2022-08-26T07:48:37.096Z,100269.59
2022-08-26T07:50:49.149Z,100271.31
2022-08-26T07:52:53.540Z,100279.00
2022-08-26T07:54:57.965Z,100269.50
2022-08-26T07:57:00.816Z,100283.09
2022-08-26T07:59:13.576Z,100273.47
2022-08-26T08:01:18.157Z,100282.19
2022-08-26T08:03:23.126Z,100273.09
2022-08-26T08:05:33.256Z,100274.31
2022-08-26T08:07:44.145Z,100282.31
2022-08-26T08:09:49.436Z,100281.25
2022-08-26T08:11:52.895Z,100273.38
2022-08-26T08:13:56.924Z,100273.38
2022-08-26T08:16:00.541Z,100271.19
2022-08-26T08:18:03.444Z,100277.72
2022-08-26T08:20:09.663Z,100278.25
2022-08-26T08:22:17.471Z,100279.19
2022-08-26T08:24:23.006Z,100282.41
2022-08-26T08:26:27.163Z,100275.25
2022-08-26T08:28:30.126Z,100276.22
2022-08-26T08:30:33.194Z,100279.59
2022-08-26T08:32:39.241Z,100285.53
2022-08-26T08:36:53.543Z,100274.94
2022-08-26T08:38:57.069Z,100275.97
2022-08-26T08:41:01.226Z,100273.84
2022-08-26T08:43:11.583Z,100274.25
2022-08-26T08:45:18.934Z,100262.81
2022-08-26T08:47:30.582Z,100271.97
2022-08-26T08:49:35.505Z,100268.63
2022-08-26T08:51:44.145Z,100269.31
2022-08-26T08:53:54.831Z,100270.94
2022-08-26T08:56:06.038Z,100274.53
2022-08-26T08:58:19.632Z,100271.78
2022-08-26T09:00:30.649Z,100278.44
2022-08-26T09:02:38.542Z,100265.13
2022-08-26T09:05:14.949Z,100273.91
2022-08-26T09:07:21.819Z,100269.50
2022-08-26T09:09:34.113Z,100269.09
2022-08-26T09:11:37.741Z,100265.66
2022-08-26T09:13:45.651Z,100268.94
2022-08-26T09:15:59.013Z,100266.28
2022-08-26T09:18:10.995Z,100260.69
2022-08-26T09:20:21.926Z,100261.78
2022-08-26T09:22:32.518Z,100260.81
2022-08-26T09:24:48.512Z,100263.31
2022-08-26T09:26:52.737Z,100267.88
2022-08-26T09:28:58.898Z,100264.00
2022-08-26T09:31:11.481Z,100267.88
2022-08-26T09:33:18.836Z,100264.94
2022-08-26T09:35:30.881Z,100254.69
2022-08-26T09:37:36.706Z,100261.94
2022-08-26T09:39:41.277Z,100260.19
2022-08-26T09:41:44.191Z,100255.97
2022-08-26T09:44:14.641Z,100257.63
2022-08-26T09:46:23.317Z,100248.75
2022-08-26T09:48:30.429Z,100253.25
2022-08-26T09:50:36.180Z,100247.75
2022-08-26T09:52:40.635Z,100241.00
2022-08-26T09:55:01.203Z,100240.06
2022-08-26T09:57:31.010Z,100247.28
2022-08-26T09:59:33.916Z,100241.34
2022-08-26T10:01:41.833Z,100240.03
2022-08-26T10:03:45.098Z,100232.94
2022-08-26T10:06:03.708Z,100227.44
2022-08-26T10:08:20.976Z,100219.72
2022-08-26T10:10:31.947Z,100219.16
2022-08-26T10:12:38.615Z,100211.34
2022-08-26T10:14:47.190Z,100210.16
2022-08-26T10:16:56.599Z,100198.75
2022-08-26T10:19:05.717Z,100194.94
2022-08-26T10:21:13.146Z,100195.59
2022-08-26T10:23:19.701Z,100196.16
2022-08-26T10:25:32.556Z,100195.41
2022-08-26T10:27:52.777Z,100190.25
2022-08-26T10:30:03.633Z,100188.72
2022-08-26T10:32:13.816Z,100184.09
2022-08-26T10:34:18.243Z,100187.31
2022-08-26T10:37:05.060Z,100185.88
2022-08-26T10:39:07.659Z,100189.22
2022-08-26T10:41:18.221Z,100182.69
2022-08-26T10:43:25.550Z,100181.56
2022-08-26T10:45:43.689Z,100179.47
2022-08-26T10:47:53.090Z,100183.16
2022-08-26T10:50:03.303Z,100177.78
2022-08-26T10:52:16.426Z,100176.75
2022-08-26T10:54:27.039Z,100170.31
2022-08-26T10:56:41.222Z,100171.72
2022-08-26T10:59:00.763Z,100171.63
2022-08-26T11:01:28.458Z,100174.94
2022-08-26T11:03:40.045Z,100167.53
2022-08-26T11:05:43.096Z,100166.09
2022-08-26T11:07:48.352Z,100163.16
2022-08-26T11:09:52.447Z,100168.78
2022-08-26T11:11:57.131Z,100159.94
2022-08-26T11:14:02.901Z,100158.63
2022-08-26T11:16:08.099Z,100154.38
2022-08-26T11:18:13.314Z,100153.72
2022-08-26T11:20:36.032Z,100143.44
2022-08-26T11:22:48.085Z,100144.91
2022-08-26T11:25:13.307Z,100134.84
2022-08-26T11:28:07.518Z,100134.81
2022-08-26T11:30:42.654Z,100140.69
2022-08-26T11:32:49.045Z,100138.69
2022-08-26T11:34:56.768Z,100132.78
2022-08-26T11:37:02.505Z,100134.63
2022-08-26T11:39:18.726Z,100125.31
2022-08-26T11:41:29.039Z,100130.06
2022-08-26T11:43:33.756Z,100117.69
2022-08-26T11:45:39.838Z,100116.94
2022-08-26T11:47:42.950Z,100116.47
2022-08-26T11:49:46.412Z,100110.31
2022-08-26T11:51:49.760Z,100104.47
2022-08-26T11:53:53.735Z,100107.19
2022-08-26T11:55:59.194Z,100105.31
2022-08-26T11:58:04.873Z,100097.50
2022-08-26T12:00:13.571Z,100097.38
2022-08-26T12:02:19.539Z,100106.13
2022-08-26T12:04:29.578Z,100100.41
2022-08-26T12:06:37.691Z,100105.03
2022-08-26T12:08:48.274Z,100102.63
2022-08-26T12:11:03.712Z,100101.88
2022-08-26T12:13:08.089Z,100090.78
2022-08-26T12:15:16.444Z,100092.91
2022-08-26T12:17:28.460Z,100088.41
2022-08-26T12:19:33.770Z,100077.91
2022-08-26T12:21:37.263Z,100076.56
2022-08-26T12:23:43.607Z,100079.97
2022-08-26T12:25:46.809Z,100079.97
2022-08-26T12:27:54.062Z,100078.03
2022-08-26T12:30:08.315Z,100082.28
2022-08-26T12:32:14.131Z,100078.25
2022-08-26T12:34:19.331Z,100074.91
2022-08-26T12:36:25.687Z,100082.06
2022-08-26T12:38:29.802Z,100072.34
2022-08-26T12:40:35.814Z,100075.34
2022-08-26T12:42:44.413Z,100075.09
2022-08-26T12:44:52.977Z,100059.75
2022-08-26T12:47:03.250Z,100063.91
2022-08-26T12:49:06.212Z,100065.22
2022-08-26T12:51:20.713Z,100064.63
2022-08-26T12:53:24.681Z,100063.41
2022-08-26T12:55:37.172Z,100056.47
2022-08-26T12:57:40.174Z,100058.03
2022-08-26T12:59:43.052Z,100054.47
2022-08-26T13:01:46.745Z,100049.47
2022-08-26T13:03:51.863Z,100055.81
2022-08-26T13:06:16.069Z,100038.25
2022-08-26T13:08:27.451Z,100035.06
2022-08-26T13:10:43.024Z,100034.22
2022-08-26T13:12:46.716Z,100027.38
2022-08-26T13:14:50.388Z,100021.88
2022-08-26T13:16:54.216Z,100019.69
2022-08-26T13:18:59.778Z,100010.56
2022-08-26T13:21:12.090Z,100011.13
2022-08-26T13:23:15.371Z,100001.41
2022-08-26T13:25:19.614Z,99997.97
2022-08-26T13:27:26.103Z,99991.38
2022-08-26T13:29:29.067Z,99981.09
2022-08-26T13:31:35.509Z,99991.13
2022-08-26T13:33:38.618Z,99986.50
2022-08-26T13:35:42.287Z,99988.56
2022-08-26T13:37:47.101Z,99997.31
2022-08-26T13:39:50.760Z,99992.34
2022-08-26T13:41:54.364Z,99991.63
2022-08-26T13:43:57.341Z,99996.38
2022-08-26T13:46:02.512Z,99987.78
2022-08-26T13:48:06.405Z,100006.50
2022-08-26T13:50:09.691Z,99989.28
2022-08-26T13:52:12.719Z,99995.22
2022-08-26T13:54:18.149Z,100004.59
2022-08-26T13:56:23.479Z,99998.34
2022-08-26T13:58:26.911Z,99996.88
2022-08-26T14:00:33.277Z,99999.66
2022-08-26T14:02:36.267Z,99999.78
2022-08-26T14:04:39.112Z,99995.84
2022-08-26T14:06:42.350Z,99994.66
2022-08-26T14:08:45.279Z,99996.34
2022-08-26T14:10:49.854Z,99993.72
2022-08-26T14:12:53.361Z,99985.22
2022-08-26T14:14:56.194Z,99984.22
2022-08-26T14:17:00.431Z,99984.34
2022-08-26T14:19:05.467Z,99984.47
2022-08-26T14:21:10.218Z,99985.13
2022-08-26T14:23:14.409Z,99984.75
2022-08-26T14:25:17.594Z,99980.13
2022-08-26T14:27:21.859Z,99970.25
2022-08-26T14:29:24.685Z,99971.88
2022-08-26T14:31:29.049Z,99974.97
2022-08-26T14:33:38.082Z,99965.50
2022-08-26T14:35:41.068Z,99971.16
2022-08-26T14:37:51.505Z,99971.94
2022-08-26T14:39:54.637Z,99968.31
2022-08-26T14:41:57.915Z,99965.16
2022-08-26T14:44:06.854Z,99966.88
2022-08-26T14:46:09.738Z,99961.53
2022-08-26T14:48:12.742Z,99962.50
2022-08-26T14:50:17.415Z,99963.13
2022-08-26T14:52:20.419Z,99965.69
2022-08-26T14:54:22.374Z,99960.94
2022-08-26T14:56:25.473Z,99962.66
2022-08-26T14:58:34.944Z,99964.00
2022-08-26T15:00:39.703Z,99960.94
2022-08-26T15:02:43.860Z,99964.59
2022-08-26T15:04:46.875Z,99957.38
2022-08-26T15:06:50.627Z,99962.50
2022-08-26T15:08:54.379Z,99963.00
2022-08-26T15:10:57.451Z,99975.47
2022-08-26T15:13:00.981Z,99977.66
2022-08-26T15:15:04.146Z,99990.75
2022-08-26T15:17:08.376Z,99987.69
2022-08-26T15:19:11.308Z,99995.75
2022-08-26T15:21:14.247Z,99998.22
2022-08-26T15:23:17.158Z,100009.06
2022-08-26T15:25:20.639Z,100009.66
2022-08-26T15:27:23.490Z,100012.31
2022-08-26T15:29:26.334Z,100010.09
2022-08-26T15:31:31.871Z,100020.84
2022-08-26T15:33:37.745Z,100011.41
2022-08-26T15:35:41.012Z,100009.31
2022-08-26T15:37:45.977Z,100008.47
2022-08-26T15:39:49.109Z,100004.66
2022-08-26T15:41:52.058Z,100004.16
2022-08-26T15:43:54.959Z,100010.19
2022-08-26T15:45:58.666Z,100022.53
2022-08-26T15:48:02.133Z,100031.56
2022-08-26T15:50:08.399Z,100046.44
2022-08-26T15:52:11.669Z,100050.06
2022-08-26T15:54:16.549Z,100054.72
2022-08-26T15:56:19.907Z,100064.13
2022-08-26T15:58:24.109Z,100064.75
2022-08-26T16:00:29.217Z,100073.56
2022-08-26T16:02:32.501Z,100060.22
2022-08-26T16:04:35.466Z,100066.66
2022-08-26T16:06:41.080Z,100058.41
2022-08-26T16:08:45.048Z,100064.97
2022-08-26T16:10:50.796Z,100076.38
2022-08-26T16:12:53.854Z,100074.75
2022-08-26T16:14:57.296Z,100080.00
2022-08-26T16:17:00.089Z,100093.19
2022-08-26T16:19:07.279Z,100086.56
2022-08-26T16:21:13.689Z,100090.09
2022-08-26T16:23:18.806Z,100099.47
2022-08-26T16:25:21.846Z,100097.88
2022-08-26T16:27:24.764Z,100096.47
2022-08-26T16:29:28.216Z,100102.66
2022-08-26T16:31:31.252Z,100097.19
2022-08-26T16:33:34.209Z,100101.50
2022-08-26T16:35:37.038Z,100101.38
2022-08-26T16:37:40.216Z,100102.13
2022-08-26T16:39:44.951Z,100098.34
2022-08-26T16:41:48.134Z,100107.22
2022-08-26T16:43:53.812Z,100115.34
2022-08-26T16:45:56.867Z,100125.41
2022-08-26T16:47:59.994Z,100123.56
2022-08-26T16:50:02.939Z,100122.50
2022-08-26T16:52:06.273Z,100110.50
2022-08-26T16:54:09.531Z,100124.81
2022-08-26T16:56:15.449Z,100120.88
2022-08-26T16:58:21.941Z,100119.44
2022-08-26T17:00:28.261Z,100132.06
2022-08-26T17:02:31.122Z,100137.78
2022-08-26T17:04:34.203Z,100142.00
2022-08-26T17:06:38.152Z,100148.47
2022-08-26T17:08:42.734Z,100153.91
2022-08-26T17:10:45.638Z,100149.31
2022-08-26T17:12:50.339Z,100146.94
2022-08-26T17:14:53.402Z,100155.34
2022-08-26T17:16:57.001Z,100147.44
2022-08-26T17:19:00.730Z,100149.81
2022-08-26T17:21:06.167Z,100162.19
2022-08-26T17:23:09.396Z,100143.41
2022-08-26T17:25:15.276Z,100143.91
2022-08-26T17:27:18.387Z,100144.47
2022-08-26T17:29:22.715Z,100143.97
2022-08-26T17:31:27.006Z,100153.09
2022-08-26T17:33:30.502Z,100146.50
2022-08-26T17:35:33.871Z,100146.88
2022-08-26T17:37:36.895Z,100137.19
2022-08-26T17:39:43.866Z,100138.13
2022-08-26T17:41:47.442Z,100134.50
2022-08-26T17:43:50.373Z,100135.22
2022-08-26T17:45:58.937Z,100136.78
2022-08-26T17:48:11.060Z,100144.03
2022-08-26T17:50:16.084Z,100142.72
2022-08-26T17:52:18.875Z,100149.44
2022-08-26T17:54:21.718Z,100144.56
2022-08-26T17:56:26.294Z,100147.06
2022-08-26T17:58:29.157Z,100154.91
2022-08-26T18:00:32.003Z,100152.97
2022-08-26T18:02:37.573Z,100157.28
2022-08-26T18:04:40.509Z,100158.97
2022-08-26T18:06:44.463Z,100154.53
2022-08-26T18:08:47.399Z,100162.25
2022-08-26T18:10:51.231Z,100155.75
2022-08-26T18:12:55.643Z,100156.59
2022-08-26T18:14:58.733Z,100173.06
2022-08-26T18:17:01.974Z,100170.59
2022-08-26T18:19:07.279Z,100167.59
2022-08-26T18:21:13.289Z,100165.81
2022-08-26T18:23:16.322Z,100165.50
2022-08-26T18:25:19.493Z,100163.94
2022-08-26T18:27:22.530Z,100162.56
2022-08-26T18:29:29.045Z,100168.28
2022-08-26T18:31:32.683Z,100169.31
2022-08-26T18:33:35.790Z,100169.81
2022-08-26T18:35:41.573Z,100166.19
2022-08-26T18:37:45.687Z,100171.78
2022-08-26T18:39:48.635Z,100173.59
2022-08-26T18:41:53.294Z,100180.81
2022-08-26T18:43:57.416Z,100172.22
2022-08-26T18:46:04.703Z,100177.56
2022-08-26T18:48:07.803Z,100184.16
2022-08-26T18:50:11.922Z,100188.75
2022-08-26T18:52:16.476Z,100182.19
2022-08-26T18:56:29.870Z,100207.22
2022-08-26T18:58:32.742Z,100222.44
2022-08-26T19:00:35.673Z,100227.44
2022-08-26T19:02:39.415Z,100229.31
2022-08-26T19:04:42.575Z,100233.19
2022-08-26T19:06:48.049Z,100232.41
2022-08-26T19:08:53.104Z,100239.69
2022-08-26T19:10:56.199Z,100237.88
2022-08-26T19:13:02.371Z,100247.25
2022-08-26T19:15:06.447Z,100244.09
2022-08-26T19:17:09.913Z,100244.94
2022-08-26T19:19:13.439Z,100250.00
2022-08-26T19:21:16.417Z,100244.94
2022-08-26T19:23:31.329Z,100255.88
2022-08-26T19:25:41.285Z,100253.94
2022-08-26T19:27:44.303Z,100254.53
2022-08-26T19:29:47.680Z,100249.13
2022-08-26T19:31:50.708Z,100252.00
2022-08-26T19:33:53.622Z,100255.13
2022-08-26T19:35:57.031Z,100249.06
2022-08-26T19:38:00.141Z,100248.22
2022-08-26T19:40:03.347Z,100248.41
2022-08-26T19:42:07.726Z,100244.81
2022-08-26T19:44:33.684Z,100245.25
2022-08-26T19:48:46.587Z,100245.09
2022-08-26T19:50:49.468Z,100245.59
2022-08-26T19:52:52.326Z,100252.72
2022-08-26T19:54:55.228Z,100254.47
2022-08-26T19:56:58.223Z,100254.13
2022-08-26T19:59:02.487Z,100254.75
2022-08-26T20:01:05.434Z,100259.53
2022-08-26T20:03:10.702Z,100267.38
2022-08-26T20:05:20.836Z,100273.53
2022-08-26T20:07:23.957Z,100280.75
2022-08-26T20:09:26.832Z,100276.44
2022-08-26T20:11:29.867Z,100285.03
2022-08-26T20:13:33.339Z,100280.75
2022-08-26T20:15:37.709Z,100281.44
2022-08-26T20:17:41.467Z,100280.91
2022-08-26T20:20:01.638Z,100287.69
2022-08-26T20:22:04.858Z,100282.09
2022-08-26T20:24:11.008Z,100284.91
2022-08-26T20:26:14.015Z,100282.69
2022-08-26T20:28:16.923Z,100282.44
2022-08-26T20:30:20.059Z,100281.00
2022-08-26T20:32:25.270Z,100276.13
2022-08-26T20:34:28.293Z,100281.19
2022-08-26T20:36:31.318Z,100280.75
2022-08-26T20:38:34.425Z,100286.75
2022-08-26T20:40:37.557Z,100287.66
2022-08-26T20:42:40.660Z,100281.44
2022-08-26T20:44:47.365Z,100286.06
2022-08-26T20:46:59.735Z,100275.09
2022-08-26T20:49:05.962Z,100280.44
2022-08-26T20:51:11.588Z,100280.03
2022-08-26T20:53:14.867Z,100272.53
2022-08-26T20:55:18.580Z,100275.03
2022-08-26T20:57:22.236Z,100275.31
2022-08-26T20:59:26.340Z,100275.97
2022-08-26T21:01:34.844Z,100274.91
2022-08-26T21:03:37.914Z,100265.41
2022-08-26T21:05:42.514Z,100272.28
2022-08-26T21:07:45.551Z,100276.53
2022-08-26T21:09:48.613Z,100270.34
2022-08-26T21:11:55.744Z,100279.38
2022-08-26T21:14:06.951Z,100272.16
2022-08-26T21:16:19.467Z,100268.69
2022-08-26T21:18:22.637Z,100275.25
2022-08-26T21:20:25.779Z,100272.91
2022-08-26T21:22:30.393Z,100275.03
2022-08-26T21:24:34.719Z,100278.25
2022-08-26T21:26:38.238Z,100285.59
2022-08-26T21:28:43.724Z,100285.28
2022-08-26T21:30:46.885Z,100298.31
2022-08-26T21:32:50.306Z,100294.06
2022-08-26T21:34:55.878Z,100300.38
2022-08-26T21:36:59.080Z,100307.84
2022-08-26T21:39:05.985Z,100303.63
2022-08-26T21:41:14.734Z,100301.41
2022-08-26T21:43:28.111Z,100303.16
2022-08-26T21:45:41.315Z,100298.75
2022-08-26T21:47:44.823Z,100297.09
2022-08-26T21:49:47.814Z,100308.91
2022-08-26T21:51:50.752Z,100305.00
2022-08-26T21:53:53.784Z,100305.66
2022-08-26T21:55:58.180Z,100309.81
2022-08-26T21:58:01.086Z,100305.44
2022-08-26T22:00:05.549Z,100304.56
2022-08-26T22:02:08.641Z,100306.00
2022-08-26T22:04:11.976Z,100310.38
2022-08-26T22:06:14.966Z,100308.09
2022-08-26T22:08:19.792Z,100311.91
2022-08-26T22:10:22.746Z,100316.66
2022-08-26T22:12:27.163Z,100317.44
2022-08-26T22:14:31.002Z,100313.66
2022-08-26T22:16:34.132Z,100312.34
2022-08-26T22:18:38.141Z,100305.16
2022-08-26T22:20:41.126Z,100304.91
2022-08-26T22:22:45.051Z,100309.56
2022-08-26T22:24:48.124Z,100306.59
2022-08-26T22:26:51.804Z,100305.44
2022-08-26T22:28:59.156Z,100317.09
2022-08-26T22:31:03.039Z,100311.63
2022-08-26T22:33:07.216Z,100318.03
2022-08-26T22:35:28.085Z,100314.22
2022-08-26T22:37:32.330Z,100314.78
2022-08-26T22:39:35.335Z,100319.81
2022-08-26T22:41:38.274Z,100311.75
2022-08-26T22:43:41.891Z,100324.72
2022-08-26T22:45:48.023Z,100320.94
2022-08-26T22:47:51.104Z,100323.56
2022-08-26T22:49:53.983Z,100329.00
2022-08-26T22:51:57.552Z,100330.44
2022-08-26T22:54:00.570Z,100329.66
2022-08-26T22:56:03.932Z,100341.38
2022-08-26T22:58:07.902Z,100335.94
2022-08-26T23:00:13.852Z,100336.72
2022-08-26T23:02:18.249Z,100337.88
2022-08-26T23:04:21.300Z,100342.03
2022-08-26T23:06:24.161Z,100342.25
2022-08-26T23:08:27.662Z,100344.56
2022-08-26T23:10:30.700Z,100347.31
2022-08-26T23:12:34.120Z,100344.94
2022-08-26T23:14:37.295Z,100342.84
2022-08-26T23:16:41.740Z,100349.84
2022-08-26T23:18:45.979Z,100346.00
2022-08-26T23:20:48.811Z,100353.72
2022-08-26T23:22:51.942Z,100348.78
2022-08-26T23:24:54.839Z,100341.50
2022-08-26T23:26:58.537Z,100345.16
2022-08-26T23:29:01.743Z,100335.84
2022-08-26T23:31:05.279Z,100337.38
2022-08-26T23:33:08.186Z,100339.66
2022-08-26T23:35:14.339Z,100341.53
2022-08-26T23:37:19.514Z,100326.72
2022-08-26T23:39:22.888Z,100343.69
2022-08-26T23:41:25.815Z,100332.88
2022-08-26T23:43:29.381Z,100326.91
2022-08-26T23:45:32.853Z,100338.13
2022-08-26T23:47:36.381Z,100333.88
2022-08-26T23:49:39.251Z,100322.25
2022-08-26T23:52:00.996Z,100331.09
2022-08-26T23:54:03.792Z,100333.03
2022-08-26T23:56:14.888Z,100337.72
2022-08-26T23:58:19.420Z,100337.88
